createdAt,value
2022-10-18T00:00:16.361Z,73.01
2022-10-18T00:02:43.163Z,72.95
2022-10-18T00:05:09.940Z,72.85
2022-10-18T00:07:36.542Z,73.05
2022-10-18T00:10:04.499Z,72.95
2022-10-18T00:12:34.857Z,72.96
2022-10-18T00:15:02.771Z,72.70
2022-10-18T00:17:29.708Z,72.77
2022-10-18T00:19:56.588Z,72.81
2022-10-18T00:22:23.190Z,72.99
2022-10-18T00:24:49.886Z,72.92
2022-10-18T00:27:16.761Z,72.82
2022-10-18T00:29:43.444Z,72.67
2022-10-18T00:32:12.079Z,72.99
2022-10-18T00:34:40.381Z,73.11
2022-10-18T00:37:07.319Z,73.00
2022-10-18T00:39:34.212Z,73.21
2022-10-18T00:42:01.335Z,73.18
2022-10-18T00:44:27.965Z,73.28
2022-10-18T00:47:01.629Z,73.39
2022-10-18T00:49:35.530Z,73.42
2022-10-18T00:52:11.075Z,73.34
2022-10-18T00:54:40.488Z,73.46
2022-10-18T00:57:08.029Z,73.68
2022-10-18T00:59:35.381Z,73.40
2022-10-18T01:02:02.355Z,73.24
2022-10-18T01:04:29.168Z,73.43
2022-10-18T01:07:04.202Z,73.46
2022-10-18T01:10:08.164Z,73.38
2022-10-18T01:12:56.302Z,73.54
2022-10-18T01:15:28.357Z,73.55
2022-10-18T01:18:07.071Z,73.46
2022-10-18T01:20:51.710Z,73.52
2022-10-18T01:23:41.230Z,73.69
2022-10-18T01:26:45.276Z,73.83
2022-10-18T01:29:53.460Z,73.79
2022-10-18T01:32:24.468Z,73.91
2022-10-18T01:34:56.099Z,73.95
2022-10-18T01:37:23.228Z,73.89
2022-10-18T01:39:54.461Z,74.12
2022-10-18T01:42:22.088Z,73.96
2022-10-18T01:44:50.823Z,74.10
2022-10-18T01:47:19.665Z,74.18
2022-10-18T01:49:46.724Z,74.13
2022-10-18T01:52:14.916Z,74.09
2022-10-18T01:54:45.255Z,74.25
2022-10-18T01:58:04.983Z,74.04
2022-10-18T02:00:42.462Z,73.94
2022-10-18T02:03:23.535Z,74.25
2022-10-18T02:05:59.247Z,74.05
2022-10-18T02:08:31.131Z,74.08
2022-10-18T02:11:04.760Z,74.05
2022-10-18T02:13:57.228Z,74.08
2022-10-18T02:16:33.108Z,74.11
2022-10-18T02:19:08.693Z,74.03
2022-10-18T02:21:38.123Z,74.38
2022-10-18T02:24:06.551Z,74.17
2022-10-18T02:26:33.295Z,74.51
2022-10-18T02:29:00.157Z,74.23
2022-10-18T02:31:49.104Z,74.38
2022-10-18T02:34:23.248Z,74.41
2022-10-18T02:36:54.219Z,74.38
2022-10-18T02:39:29.569Z,74.29
2022-10-18T02:41:57.672Z,74.20
2022-10-18T02:44:24.844Z,74.24
2022-10-18T02:46:51.521Z,74.28
2022-10-18T02:49:18.584Z,74.34
2022-10-18T02:51:45.480Z,74.53
2022-10-18T02:54:12.098Z,74.55
2022-10-18T02:56:38.832Z,74.57
2022-10-18T02:59:07.449Z,74.58
2022-10-18T03:01:37.230Z,74.59
2022-10-18T03:04:05.252Z,74.77
2022-10-18T03:06:32.813Z,74.67
2022-10-18T03:08:59.596Z,74.83
2022-10-18T03:11:26.257Z,74.89
2022-10-18T03:13:53.011Z,74.86
2022-10-18T03:16:19.778Z,75.20
2022-10-18T03:18:46.808Z,75.18
2022-10-18T03:21:13.636Z,74.85
2022-10-18T03:23:42.311Z,74.86
2022-10-18T03:26:10.043Z,74.85
2022-10-18T03:28:36.811Z,74.94
2022-10-18T03:31:04.692Z,74.79
2022-10-18T03:33:32.688Z,74.79
2022-10-18T03:35:59.692Z,74.79
2022-10-18T03:38:26.620Z,74.93
2022-10-18T03:40:53.204Z,74.71
2022-10-18T03:43:19.978Z,74.69
2022-10-18T03:45:46.631Z,74.37
2022-10-18T03:48:13.272Z,74.42
2022-10-18T03:50:40.062Z,74.25
2022-10-18T03:53:06.850Z,74.39
2022-10-18T03:55:33.475Z,74.12
2022-10-18T03:58:00.275Z,74.23
2022-10-18T04:00:26.912Z,74.18
2022-10-18T04:02:55.871Z,74.06
2022-10-18T04:05:28.156Z,73.92
2022-10-18T04:07:55.285Z,74.25
2022-10-18T04:10:22.581Z,74.33
2022-10-18T04:12:49.386Z,74.19
2022-10-18T04:15:16.533Z,74.23
2022-10-18T04:17:43.185Z,74.25
2022-10-18T04:20:10.181Z,74.27
2022-10-18T04:22:36.877Z,74.54
2022-10-18T04:25:04.637Z,74.52
2022-10-18T04:27:31.743Z,74.30
2022-10-18T04:29:58.823Z,74.25
2022-10-18T04:32:27.864Z,74.58
2022-10-18T04:34:54.710Z,74.46
2022-10-18T04:37:21.456Z,74.35
2022-10-18T04:39:51.245Z,74.28
2022-10-18T04:42:21.073Z,74.38
2022-10-18T04:44:48.405Z,74.26
2022-10-18T04:47:15.537Z,74.37
2022-10-18T04:49:42.327Z,74.68
2022-10-18T04:52:09.468Z,74.72
2022-10-18T04:54:36.448Z,74.51
2022-10-18T04:57:03.334Z,74.35
2022-10-18T04:59:29.987Z,74.62
2022-10-18T05:01:56.730Z,74.75
2022-10-18T05:04:23.633Z,74.63
2022-10-18T05:06:50.666Z,74.72
2022-10-18T05:20:00.173Z,76.79
2022-10-18T05:22:26.935Z,76.14
2022-10-18T05:24:53.490Z,75.94
2022-10-18T05:27:20.447Z,75.78
2022-10-18T05:29:47.046Z,75.72
2022-10-18T05:32:13.832Z,75.67
2022-10-18T05:34:40.627Z,75.78
2022-10-18T05:37:07.477Z,75.46
2022-10-18T05:39:34.182Z,75.48
2022-10-18T05:42:01.185Z,75.44
2022-10-18T05:44:27.896Z,75.12
2022-10-18T05:46:54.654Z,75.34
2022-10-18T05:49:21.477Z,75.23
2022-10-18T05:51:48.158Z,74.98
2022-10-18T05:54:15.384Z,75.14
2022-10-18T05:56:42.389Z,75.21
2022-10-18T05:59:12.377Z,75.26
2022-10-18T06:01:40.599Z,75.22
2022-10-18T06:04:07.873Z,75.44
2022-10-18T06:06:34.498Z,75.47
2022-10-18T06:09:03.301Z,75.39
2022-10-18T06:11:31.155Z,75.66
2022-10-18T06:13:58.135Z,75.80
2022-10-18T06:16:31.295Z,75.81
2022-10-18T06:18:59.962Z,75.37
2022-10-18T06:21:27.041Z,75.55
2022-10-18T06:23:56.141Z,75.42
2022-10-18T06:26:23.306Z,75.69
2022-10-18T06:28:50.352Z,75.77
2022-10-18T06:31:17.528Z,76.11
2022-10-18T06:33:46.213Z,75.88
2022-10-18T06:36:18.532Z,76.06
2022-10-18T06:38:45.626Z,76.09
2022-10-18T06:41:12.383Z,76.18
2022-10-18T06:43:39.503Z,76.42
2022-10-18T06:46:08.220Z,76.57
2022-10-18T06:48:39.225Z,76.42
2022-10-18T06:51:07.449Z,76.86
2022-10-18T06:53:43.919Z,77.00
2022-10-18T08:34:49.689Z,74.42
2022-10-18T08:37:18.567Z,74.35
2022-10-18T08:39:45.458Z,74.19
2022-10-18T08:42:27.760Z,73.33
2022-10-18T08:44:55.595Z,72.79
2022-10-18T08:47:43.821Z,72.56
2022-10-18T08:51:43.690Z,72.14
2022-10-18T08:54:25.666Z,71.27
2022-10-18T08:57:05.200Z,70.59
2022-10-18T08:59:39.629Z,70.03
2022-10-18T09:02:12.450Z,70.00
2022-10-18T09:04:48.198Z,69.19
2022-10-18T09:07:36.912Z,68.25
2022-10-18T09:10:26.409Z,67.46
2022-10-18T09:13:11.848Z,66.99
2022-10-18T09:16:06.351Z,66.00
2022-10-18T09:18:48.947Z,66.10
2022-10-18T09:21:34.745Z,65.26
2022-10-18T09:24:04.272Z,65.26
2022-10-18T09:26:40.942Z,64.33
2022-10-18T09:29:29.423Z,63.66
2022-10-18T09:32:14.543Z,63.87
2022-10-18T09:34:59.055Z,62.97
2022-10-18T09:37:28.484Z,63.01
2022-10-18T09:40:03.122Z,62.47
2022-10-18T09:42:36.311Z,61.67
2022-10-18T09:45:32.088Z,61.07
2022-10-18T09:48:08.600Z,60.19
2022-10-18T09:50:45.319Z,59.05
2022-10-18T09:53:19.282Z,59.29
2022-10-18T09:55:59.405Z,58.31
2022-10-18T09:58:30.887Z,56.97
2022-10-18T10:00:58.115Z,56.42
2022-10-18T10:03:25.842Z,55.91
2022-10-18T10:06:17.601Z,55.48
2022-10-18T10:08:48.642Z,54.81
2022-10-18T10:11:45.674Z,54.03
2022-10-18T10:14:24.211Z,54.04
2022-10-18T10:16:57.515Z,53.75
2022-10-18T10:19:35.814Z,54.03
2022-10-18T10:22:34.806Z,54.60
2022-10-18T10:25:02.272Z,54.54
2022-10-18T10:27:43.573Z,54.64
2022-10-18T10:30:39.775Z,54.67
2022-10-18T10:33:06.761Z,53.90
2022-10-18T10:38:28.308Z,53.98
2022-10-18T10:40:55.908Z,53.44
2022-10-18T10:43:38.284Z,53.33
2022-10-18T10:46:13.198Z,53.09
2022-10-18T10:49:15.330Z,52.44
2022-10-18T10:51:43.818Z,52.28
2022-10-18T10:54:24.401Z,52.16
2022-10-18T10:57:12.782Z,52.02
2022-10-18T10:59:48.222Z,51.32
2022-10-18T11:02:17.773Z,50.93
2022-10-18T11:04:52.880Z,50.49
2022-10-18T11:07:43.246Z,50.47
2022-10-18T11:10:09.963Z,50.27
2022-10-18T11:12:43.434Z,50.09
2022-10-18T11:15:10.559Z,50.36
2022-10-18T11:18:15.009Z,49.95
2022-10-18T11:21:02.908Z,49.69
2022-10-18T11:23:32.924Z,49.24
2022-10-18T11:26:06.882Z,49.11
2022-10-18T11:28:36.312Z,49.44
2022-10-18T11:31:20.532Z,48.80
2022-10-18T11:34:18.796Z,48.70
2022-10-18T11:37:27.319Z,48.22
2022-10-18T11:40:07.965Z,48.19
2022-10-18T11:42:48.275Z,47.61
2022-10-18T11:45:52.510Z,47.76
2022-10-18T11:48:43.863Z,47.66
2022-10-18T11:51:55.907Z,47.43
2022-10-18T11:54:45.239Z,46.98
2022-10-18T11:57:42.849Z,46.59
2022-10-18T12:00:19.368Z,46.01
2022-10-18T12:03:14.195Z,45.84
2022-10-18T12:05:44.619Z,45.49
2022-10-18T12:08:26.924Z,45.80
2022-10-18T12:11:06.060Z,45.64
2022-10-18T12:13:48.202Z,45.34
2022-10-18T12:16:16.820Z,45.13
2022-10-18T12:19:01.037Z,44.75
2022-10-18T12:21:32.033Z,45.28
2022-10-18T12:24:16.077Z,45.09
2022-10-18T12:26:43.714Z,44.85
2022-10-18T12:29:38.361Z,44.88
2022-10-18T12:32:20.594Z,45.04
2022-10-18T12:34:51.913Z,44.73
2022-10-18T12:37:32.959Z,44.64
2022-10-18T12:40:11.515Z,44.60
2022-10-18T12:42:52.854Z,44.49
2022-10-18T12:45:26.601Z,43.89
2022-10-18T12:47:54.336Z,44.01
2022-10-18T12:50:44.045Z,43.55
2022-10-18T12:53:12.418Z,43.69
2022-10-18T12:55:44.584Z,43.39
2022-10-18T12:58:14.602Z,43.27
2022-10-18T13:00:41.845Z,43.30
2022-10-18T13:03:16.902Z,43.13
2022-10-18T13:05:55.568Z,42.71
2022-10-18T13:08:42.366Z,42.62
2022-10-18T13:11:09.062Z,42.37
2022-10-18T13:14:20.692Z,42.56
2022-10-18T13:17:11.378Z,42.83
2022-10-18T13:20:07.759Z,42.66
2022-10-18T13:23:17.289Z,42.69
2022-10-18T13:25:54.553Z,42.60
2022-10-18T13:28:47.448Z,42.60
2022-10-18T13:31:14.274Z,42.34
2022-10-18T13:33:42.175Z,42.17
2022-10-18T13:36:22.700Z,42.00
2022-10-18T13:38:57.675Z,43.21
2022-10-18T13:41:32.785Z,43.40
2022-10-18T13:44:05.242Z,42.89
2022-10-18T13:46:34.879Z,42.99
2022-10-18T13:49:34.627Z,43.17
2022-10-18T13:52:07.044Z,43.60
2022-10-18T13:54:45.548Z,43.88
2022-10-18T13:57:24.467Z,43.75
2022-10-18T14:00:15.692Z,43.30
2022-10-18T14:02:57.755Z,43.38
2022-10-18T14:06:00.222Z,43.05
2022-10-18T14:08:45.903Z,42.88
2022-10-18T14:11:53.590Z,43.03
2022-10-18T14:14:42.690Z,43.50
2022-10-18T14:17:32.504Z,44.44
2022-10-18T14:20:20.645Z,45.12
2022-10-18T14:23:05.547Z,45.82
2022-10-18T14:25:35.949Z,46.22
2022-10-18T14:28:36.247Z,46.58
2022-10-18T14:31:16.184Z,47.07
2022-10-18T14:33:58.386Z,47.89
2022-10-18T14:36:29.612Z,48.30
2022-10-18T14:38:59.175Z,48.96
2022-10-18T14:41:34.303Z,49.36
2022-10-18T14:44:16.255Z,49.97
2022-10-18T14:46:45.327Z,50.47
2022-10-18T14:49:13.434Z,51.12
2022-10-18T14:51:43.050Z,51.61
2022-10-18T14:54:19.454Z,52.01
2022-10-18T14:56:46.604Z,52.21
2022-10-18T14:59:37.027Z,52.53
2022-10-18T15:02:35.397Z,52.94
2022-10-18T15:05:17.596Z,53.22
2022-10-18T15:07:45.070Z,53.74
2022-10-18T15:10:18.538Z,54.52
2022-10-18T15:13:08.258Z,54.81
2022-10-18T15:15:34.902Z,55.12
2022-10-18T15:18:02.317Z,55.47
2022-10-18T15:20:33.551Z,56.19
2022-10-18T15:23:24.794Z,56.38
2022-10-18T15:25:53.062Z,56.91
2022-10-18T15:28:50.094Z,57.19
2022-10-18T15:31:24.509Z,57.39
2022-10-18T15:33:52.951Z,57.36
2022-10-18T15:36:32.292Z,57.74
2022-10-18T15:39:15.654Z,58.03
2022-10-18T15:41:59.480Z,58.24
2022-10-18T15:44:31.967Z,58.57
2022-10-18T15:47:21.685Z,58.54
2022-10-18T15:49:58.679Z,58.76
2022-10-18T15:52:43.299Z,59.14
2022-10-18T15:59:03.614Z,59.45
2022-10-18T16:01:35.745Z,59.99
2022-10-18T16:04:09.066Z,60.30
2022-10-18T16:06:38.748Z,60.33
2022-10-18T16:09:05.843Z,60.45
2022-10-18T16:11:32.789Z,60.80
2022-10-18T16:14:00.541Z,60.87
2022-10-18T16:16:28.949Z,61.15
2022-10-18T16:18:56.097Z,61.18
2022-10-18T16:21:35.138Z,61.38
2022-10-18T16:24:02.440Z,61.58
2022-10-18T16:26:29.593Z,61.64
2022-10-18T16:28:58.074Z,61.84
2022-10-18T16:31:31.354Z,61.83
2022-10-18T16:33:59.021Z,62.04
2022-10-18T16:36:29.106Z,62.21
2022-10-18T16:38:57.302Z,62.35
2022-10-18T16:41:23.986Z,62.57
2022-10-18T16:43:51.335Z,62.52
2022-10-18T16:46:21.248Z,62.93
2022-10-18T16:48:49.831Z,62.89
2022-10-18T16:51:17.430Z,63.00
2022-10-18T16:53:44.498Z,63.16
2022-10-18T16:56:16.009Z,63.49
2022-10-18T16:58:43.032Z,63.55
2022-10-18T17:01:18.343Z,63.83
2022-10-18T17:03:45.704Z,63.88
2022-10-18T17:06:18.312Z,64.35
2022-10-18T17:08:45.548Z,64.31
2022-10-18T17:11:14.284Z,64.69
2022-10-18T17:13:41.074Z,64.41
2022-10-18T17:16:16.184Z,64.68
2022-10-18T17:18:42.962Z,64.74
2022-10-18T17:21:09.615Z,64.75
2022-10-18T17:23:36.215Z,65.13
2022-10-18T17:26:26.206Z,65.54
2022-10-18T17:28:54.854Z,65.49
2022-10-18T17:31:22.750Z,65.41
2022-10-18T17:33:49.491Z,65.55
2022-10-18T17:36:16.482Z,65.77
2022-10-18T17:38:43.176Z,65.93
2022-10-18T17:41:11.570Z,65.96
2022-10-18T17:46:08.427Z,66.19
2022-10-18T17:48:35.190Z,66.53
2022-10-18T17:51:07.717Z,66.51
2022-10-18T17:53:34.939Z,66.39
2022-10-18T17:56:03.183Z,66.53
2022-10-18T17:58:31.586Z,66.28
2022-10-18T18:01:08.541Z,66.49
2022-10-18T18:03:35.259Z,66.75
2022-10-18T18:06:21.672Z,66.89
2022-10-18T18:08:49.769Z,66.88
2022-10-18T18:11:17.429Z,67.07
2022-10-18T18:13:44.105Z,67.00
2022-10-18T18:16:31.230Z,66.90
2022-10-18T18:18:58.920Z,67.14
2022-10-18T18:21:27.207Z,67.16
2022-10-18T18:23:54.036Z,67.43
2022-10-18T18:26:21.462Z,67.36
2022-10-18T18:28:48.958Z,67.81
2022-10-18T18:31:19.416Z,67.81
2022-10-18T18:33:46.437Z,67.89
2022-10-18T18:36:13.481Z,67.99
2022-10-18T18:38:42.963Z,67.94
2022-10-18T18:41:15.456Z,67.83
2022-10-18T18:43:45.453Z,67.98
2022-10-18T18:46:13.592Z,68.46
2022-10-18T18:48:40.952Z,68.14
2022-10-18T18:51:13.586Z,68.37
2022-10-18T18:53:41.608Z,68.27
2022-10-18T18:56:10.960Z,68.33
2022-10-18T18:58:39.094Z,68.18
2022-10-18T19:01:20.052Z,68.44
2022-10-18T19:03:49.494Z,68.42
2022-10-18T19:06:22.148Z,68.42
2022-10-18T19:08:52.845Z,68.59
2022-10-18T19:11:21.489Z,68.63
2022-10-18T19:13:51.301Z,68.84
2022-10-18T19:16:24.550Z,68.89
2022-10-18T19:19:00.005Z,68.74
2022-10-18T19:21:29.978Z,68.94
2022-10-18T19:23:57.922Z,68.91
